createdAt,value
2023-02-22T00:04:15.802Z,7.3
2023-02-22T00:08:23.418Z,7.3
2023-02-22T00:10:27.229Z,7.3
2023-02-22T00:12:34.284Z,7.3
2023-02-22T00:16:41.983Z,7.2
2023-02-22T00:25:16.062Z,7.3
2023-02-22T00:29:23.663Z,7.3
2023-02-22T00:35:35.067Z,7.2
2023-02-22T00:37:38.862Z,7.3
2023-02-22T00:43:53.545Z,7.2
2023-02-22T00:46:28.864Z,7.2
2023-02-22T00:50:04.934Z,7.2
2023-02-22T00:54:15.818Z,7.2
2023-02-22T00:58:23.441Z,7.2
2023-02-22T01:04:34.832Z,7.2
2023-02-22T01:08:45.690Z,7.2
2023-02-22T01:10:49.513Z,7.1
2023-02-22T01:12:53.279Z,7.1
2023-02-22T01:13:56.849Z,7.1
2023-02-22T01:16:00.663Z,7.1
2023-02-22T01:18:04.442Z,7.1
2023-02-22T01:22:15.353Z,7.1
2023-02-22T01:24:19.116Z,7
2023-02-22T01:26:22.919Z,7.1
2023-02-22T01:28:26.739Z,7.1
2023-02-22T01:30:30.701Z,7.1
2023-02-22T01:32:34.366Z,7
2023-02-22T01:34:38.162Z,7
2023-02-22T01:36:45.210Z,7
2023-02-22T01:38:48.992Z,7
2023-02-22T01:40:52.782Z,7
2023-02-22T01:42:56.604Z,7
2023-02-22T01:49:07.997Z,7
2023-02-22T01:51:15.311Z,6.9
2023-02-22T01:53:18.885Z,6.9
2023-02-22T01:55:22.680Z,6.9
2023-02-22T01:57:26.486Z,6.9
2023-02-22T01:59:30.252Z,6.9
2023-02-22T02:01:34.084Z,6.9
2023-02-22T02:03:37.896Z,6.9
2023-02-22T02:05:46.544Z,6.8
2023-02-22T02:07:50.326Z,6.8
2023-02-22T02:10:57.667Z,6.8
2023-02-22T02:13:01.486Z,6.8
2023-02-22T02:15:05.290Z,6.8
2023-02-22T02:17:09.071Z,6.8
2023-02-22T02:19:16.131Z,6.8
2023-02-22T02:21:19.932Z,6.8
2023-02-22T02:23:23.720Z,6.7
2023-02-22T02:25:27.523Z,6.7
2023-02-22T02:31:39.083Z,6.7
2023-02-22T02:33:46.011Z,6.7
2023-02-22T02:46:08.800Z,6.6
2023-02-22T02:50:19.656Z,6.6
2023-02-22T02:52:23.432Z,6.5
2023-02-22T02:54:27.237Z,6.5
2023-02-22T02:56:31.067Z,6.5
2023-02-22T02:58:34.844Z,6.5
2023-02-22T03:00:38.630Z,6.5
2023-02-22T03:02:45.681Z,6.5
2023-02-22T03:04:49.481Z,6.4
2023-02-22T03:06:53.290Z,6.5
2023-02-22T03:07:56.806Z,6.4
2023-02-22T03:10:00.663Z,6.4
2023-02-22T03:12:04.387Z,6.4
2023-02-22T03:14:08.179Z,6.4
2023-02-22T03:16:15.297Z,6.4
2023-02-22T03:18:19.043Z,6.3
2023-02-22T03:20:22.837Z,6.3
2023-02-22T03:22:26.657Z,6.3
2023-02-22T03:24:30.438Z,6.3
2023-02-22T03:26:34.248Z,6.3
2023-02-22T03:28:38.024Z,6.3
2023-02-22T03:30:45.105Z,6.2
2023-02-22T03:32:48.843Z,6.2
2023-02-22T03:34:52.659Z,6.2
2023-02-22T03:36:56.428Z,6.1
2023-02-22T03:39:00.235Z,6.2
2023-02-22T03:43:07.793Z,6.1
2023-02-22T03:45:14.869Z,6.1
2023-02-22T03:47:18.655Z,6.1
2023-02-22T03:49:22.443Z,6.1
2023-02-22T03:51:26.219Z,6
2023-02-22T03:57:37.582Z,5.9
2023-02-22T04:01:48.421Z,5.9
2023-02-22T04:03:52.215Z,5.9
2023-02-22T04:06:17.307Z,5.8
2023-02-22T04:08:21.147Z,5.8
2023-02-22T04:12:31.956Z,5.8
2023-02-22T04:14:35.760Z,5.8
2023-02-22T04:16:39.531Z,5.7
2023-02-22T04:18:43.334Z,5.6
2023-02-22T04:20:47.103Z,5.7
2023-02-22T04:22:50.924Z,5.6
2023-02-22T04:27:01.744Z,5.5
2023-02-22T04:29:05.532Z,5.5
2023-02-22T04:31:09.360Z,5.5
2023-02-22T04:33:13.101Z,5.5
2023-02-22T04:35:16.860Z,5.4
2023-02-22T04:37:20.656Z,5.4
2023-02-22T04:39:24.433Z,5.4
2023-02-22T04:41:31.519Z,5.3
2023-02-22T04:43:35.222Z,5.3
2023-02-22T04:45:39.004Z,5.2
2023-02-22T04:47:42.766Z,5.2
2023-02-22T04:49:46.538Z,5.2
2023-02-22T04:51:50.317Z,5.2
2023-02-22T04:53:54.068Z,5.3
2023-02-22T04:56:01.098Z,5.3
2023-02-22T04:58:04.895Z,5.3
2023-02-22T05:00:08.661Z,5.3
2023-02-22T05:03:15.975Z,5.3
2023-02-22T05:05:19.711Z,5.3
2023-02-22T05:09:30.559Z,5.3
2023-02-22T05:11:34.329Z,5.3
2023-02-22T05:13:38.077Z,5.3
2023-02-22T05:15:41.896Z,5.3
2023-02-22T05:17:45.593Z,5.2
2023-02-22T05:19:49.353Z,5.2
2023-02-22T05:21:53.131Z,5.2
2023-02-22T05:24:00.178Z,5.2
2023-02-22T05:26:03.934Z,5.1
2023-02-22T05:30:11.538Z,5.2
2023-02-22T05:34:19.007Z,5.1
2023-02-22T05:36:22.780Z,5.1
2023-02-22T05:38:29.805Z,5.1
2023-02-22T05:40:33.588Z,5.1
2023-02-22T05:42:37.368Z,5.1
2023-02-22T05:48:48.668Z,5.1
2023-02-22T05:52:59.476Z,5.2
2023-02-22T05:57:07.005Z,5.1
2023-02-22T05:58:10.530Z,5.2
2023-02-22T06:00:14.339Z,5.1
2023-02-22T06:02:18.106Z,5.1
2023-02-22T06:04:21.848Z,5.1
2023-02-22T06:06:28.902Z,5.1
2023-02-22T06:08:32.671Z,5.1
2023-02-22T06:10:36.444Z,5.1
2023-02-22T06:12:40.212Z,5.2
2023-02-22T06:14:43.969Z,5.1
2023-02-22T06:16:47.749Z,5.2
2023-02-22T06:18:51.534Z,5.1
2023-02-22T06:20:58.593Z,5.2
2023-02-22T06:25:06.080Z,5.1
2023-02-22T06:27:09.867Z,5.1
2023-02-22T06:29:13.634Z,5.1
2023-02-22T06:31:17.761Z,5.1
2023-02-22T06:33:21.178Z,5.1
2023-02-22T06:35:28.222Z,5.1
2023-02-22T06:37:31.989Z,5.1
2023-02-22T06:39:35.762Z,5
2023-02-22T06:41:39.553Z,5
2023-02-22T06:43:43.300Z,5
2023-02-22T06:45:47.109Z,4.9
2023-02-22T06:47:50.887Z,4.9
2023-02-22T06:49:57.910Z,5
2023-02-22T06:52:01.667Z,4.9
2023-02-22T06:54:05.456Z,5
2023-02-22T06:55:08.951Z,5
2023-02-22T07:03:27.439Z,5.1
2023-02-22T07:05:31.090Z,5
2023-02-22T07:15:49.959Z,5.1
2023-02-22T07:24:08.278Z,5.1
2023-02-22T07:28:15.609Z,5.1
2023-02-22T07:30:19.663Z,5.1
2023-02-22T07:32:26.600Z,5.1
2023-02-22T07:34:30.164Z,5.1
2023-02-22T07:36:34.594Z,5.1
2023-02-22T07:38:38.390Z,5.1
2023-02-22T07:40:42.137Z,5.1
2023-02-22T07:42:45.920Z,5.2
2023-02-22T07:44:49.683Z,5.2
2023-02-22T07:49:00.493Z,5.2
2023-02-22T07:53:29.376Z,5.2
2023-02-22T07:55:33.208Z,5.2
2023-02-22T07:57:36.959Z,5.2
2023-02-22T07:59:45.642Z,5.2
2023-02-22T08:01:49.383Z,5.2
2023-02-22T08:03:53.155Z,5.2
2023-02-22T08:05:56.976Z,5.3
2023-02-22T08:08:00.700Z,5.3
2023-02-22T08:10:04.467Z,5.3
2023-02-22T08:12:08.239Z,5.3
2023-02-22T08:14:15.287Z,5.3
2023-02-22T08:16:19.051Z,5.3
2023-02-22T08:18:22.837Z,5.4
2023-02-22T08:20:26.627Z,5.4
2023-02-22T08:22:30.393Z,5.4
2023-02-22T08:24:34.166Z,5.4
2023-02-22T08:26:37.966Z,5.5
2023-02-22T08:28:44.977Z,5.6
2023-02-22T08:30:48.795Z,5.6
2023-02-22T08:37:00.097Z,5.6
2023-02-22T08:39:03.845Z,5.6
2023-02-22T08:41:07.624Z,5.7
2023-02-22T08:45:18.448Z,5.6
2023-02-22T08:47:22.255Z,5.7
2023-02-22T08:50:29.560Z,5.8
2023-02-22T08:52:33.310Z,5.9
2023-02-22T08:56:44.132Z,6
2023-02-22T08:58:47.917Z,5.9
2023-02-22T09:02:55.471Z,6.1
2023-02-22T09:04:59.273Z,6.1
2023-02-22T09:07:03.045Z,6.1
2023-02-22T09:09:06.837Z,6.2
2023-02-22T09:11:13.899Z,6.3
2023-02-22T09:13:17.675Z,6.3
2023-02-22T09:15:21.445Z,6.2
2023-02-22T09:19:29.039Z,6.3
2023-02-22T09:21:32.824Z,6.3
2023-02-22T09:23:36.588Z,6.3
2023-02-22T09:25:43.657Z,6.3
2023-02-22T09:27:47.468Z,6.3
2023-02-22T09:29:51.231Z,6.4
2023-02-22T09:31:55.211Z,6.4
2023-02-22T09:33:58.837Z,6.4
2023-02-22T09:36:02.631Z,6.5
2023-02-22T09:38:06.440Z,6.5
2023-02-22T09:40:13.441Z,6.6
2023-02-22T09:44:21.036Z,6.7
2023-02-22T09:45:24.597Z,6.8
2023-02-22T09:47:28.410Z,6.8
2023-02-22T09:57:50.576Z,7.2
2023-02-22T10:01:58.180Z,7.5
2023-02-22T10:14:24.241Z,7.5
2023-02-22T10:16:28.103Z,7.4
2023-02-22T10:18:31.814Z,7.4
2023-02-22T10:20:35.608Z,7.6
2023-02-22T10:26:50.289Z,8.2
2023-02-22T10:30:57.977Z,8.4
2023-02-22T10:41:20.234Z,8.7
2023-02-22T10:42:23.765Z,8.6
2023-02-22T10:44:27.564Z,8.7
2023-02-22T10:46:31.394Z,8.9
2023-02-22T10:50:42.323Z,9.2
2023-02-22T10:54:49.922Z,9.3
2023-02-22T10:56:53.745Z,9.4
2023-02-22T10:58:57.587Z,9.3
2023-02-22T11:01:01.397Z,9.4
2023-02-22T11:03:05.196Z,9.3
2023-02-22T11:05:12.321Z,9.6
2023-02-22T11:07:16.092Z,9.7
2023-02-22T11:09:19.905Z,9.6
2023-02-22T11:11:23.732Z,9.4
2023-02-22T11:13:27.568Z,9.5
2023-02-22T11:15:31.371Z,9.5
2023-02-22T11:21:46.109Z,9.9
2023-02-22T11:25:53.740Z,10
2023-02-22T11:27:57.540Z,10.3
2023-02-22T11:30:01.393Z,10.6
2023-02-22T11:32:05.220Z,10.6
2023-02-22T11:34:12.314Z,10.4
2023-02-22T11:36:16.112Z,10.4
2023-02-22T11:38:19.972Z,10.5
2023-02-22T11:40:39.230Z,10.3
2023-02-22T11:42:43.037Z,10.1
2023-02-22T11:44:46.880Z,10.2
2023-02-22T11:46:53.958Z,10.3
2023-02-22T11:48:57.758Z,10.4
2023-02-22T11:51:01.591Z,10.5
2023-02-22T11:55:09.252Z,10.2
2023-02-22T11:57:13.058Z,10.2
2023-02-22T11:59:16.929Z,10.5
2023-02-22T12:01:24.006Z,10.6
2023-02-22T12:03:28.946Z,10.7
2023-02-22T12:18:00.272Z,11.7
2023-02-22T12:24:09.278Z,11.2
2023-02-22T12:26:13.106Z,11.4
2023-02-22T12:28:24.332Z,11.5
2023-02-22T12:30:24.047Z,11.9
2023-02-22T12:32:28.027Z,11.9
2023-02-22T12:34:31.678Z,11.6
2023-02-22T12:35:35.241Z,11.3
2023-02-22T12:37:39.040Z,11.1
2023-02-22T12:41:46.701Z,11
2023-02-22T12:43:53.790Z,11.1
2023-02-22T12:45:57.609Z,11.1
2023-02-22T12:48:01.411Z,11.1
2023-02-22T12:52:20.959Z,11
2023-02-22T12:54:12.877Z,11.1
2023-02-22T12:56:16.728Z,11.2
2023-02-22T12:58:23.827Z,11.2
2023-02-22T13:00:27.655Z,11.2
2023-02-22T13:02:31.539Z,11.4
2023-02-22T13:04:35.323Z,11.7
2023-02-22T13:06:39.170Z,11.4
2023-02-22T13:10:46.824Z,11.2
2023-02-22T13:14:57.743Z,11.1
2023-02-22T13:21:09.228Z,11.2
2023-02-22T13:23:13.044Z,11.2
2023-02-22T13:25:16.867Z,11.1
2023-02-22T13:27:23.955Z,11.1
2023-02-22T13:29:27.762Z,11
2023-02-22T13:32:35.226Z,10.9
2023-02-22T13:34:38.936Z,10.9
2023-02-22T13:36:42.759Z,10.9
2023-02-22T13:38:46.595Z,10.9
2023-02-22T13:40:53.682Z,11
2023-02-22T13:42:57.507Z,10.9
2023-02-22T13:45:01.335Z,10.9
2023-02-22T13:47:05.166Z,10.9
2023-02-22T13:49:08.980Z,10.9
2023-02-22T13:51:12.800Z,11
2023-02-22T13:53:16.625Z,10.9
2023-02-22T13:57:29.148Z,10.9
2023-02-22T13:59:35.749Z,10.9
2023-02-22T14:01:36.842Z,10.8
2023-02-22T14:03:41.232Z,10.8
2023-02-22T14:05:44.484Z,10.8
2023-02-22T14:07:48.252Z,10.8
2023-02-22T14:09:55.416Z,10.8
2023-02-22T14:11:59.133Z,10.8
2023-02-22T14:14:02.961Z,10.8
2023-02-22T14:16:06.793Z,10.8
2023-02-22T14:18:10.711Z,10.9
2023-02-22T14:20:14.431Z,10.9
2023-02-22T14:22:18.209Z,10.9
2023-02-22T14:24:25.328Z,10.8
2023-02-22T14:26:29.160Z,10.8
2023-02-22T14:28:32.941Z,10.8
2023-02-22T14:29:36.479Z,10.8
2023-02-22T14:39:58.883Z,10.9
2023-02-22T14:44:06.547Z,10.9
2023-02-22T14:46:13.109Z,10.9
2023-02-22T14:48:14.209Z,10.9
2023-02-22T14:50:18.011Z,10.9
2023-02-22T14:52:25.093Z,10.9
2023-02-22T14:54:28.944Z,10.8
2023-02-22T14:56:32.728Z,10.7
2023-02-22T14:58:36.558Z,10.7
2023-02-22T15:00:40.399Z,10.6
2023-02-22T15:02:44.255Z,10.6
2023-02-22T15:04:48.123Z,10.6
2023-02-22T15:06:55.179Z,10.6
2023-02-22T15:08:59.004Z,10.6
2023-02-22T15:11:02.873Z,10.6
2023-02-22T15:13:06.662Z,10.5
2023-02-22T15:15:10.488Z,10.5
2023-02-22T15:17:14.332Z,10.5
2023-02-22T15:19:18.152Z,10.5
2023-02-22T15:21:25.247Z,10.5
2023-02-22T15:23:29.065Z,10.4
2023-02-22T15:25:32.904Z,10.4
2023-02-22T15:27:57.828Z,10.3
2023-02-22T15:30:01.694Z,10.3
2023-02-22T15:32:05.566Z,10.3
2023-02-22T15:34:12.584Z,10.3
2023-02-22T15:36:16.401Z,10.2
2023-02-22T15:38:20.215Z,10.2
2023-02-22T15:40:24.061Z,10.2
2023-02-22T15:42:29.826Z,10.2
2023-02-22T15:44:31.697Z,10.2
2023-02-22T15:46:35.528Z,10.2
2023-02-22T15:48:42.614Z,10.2
2023-02-22T15:50:46.437Z,10.1
2023-02-22T15:52:50.301Z,10.1
2023-02-22T15:54:54.142Z,10.1
2023-02-22T15:59:01.809Z,10
2023-02-22T16:01:05.677Z,10
2023-02-22T16:03:12.723Z,10
2023-02-22T16:05:16.530Z,9.9
2023-02-22T16:07:20.345Z,9.9
2023-02-22T16:09:24.193Z,9.9
2023-02-22T16:11:28.004Z,9.9
2023-02-22T16:13:32.882Z,9.8
2023-02-22T16:15:35.665Z,9.8
2023-02-22T16:19:46.559Z,9.7
2023-02-22T16:21:50.395Z,9.7
2023-02-22T16:22:53.941Z,9.7
2023-02-22T16:24:57.752Z,9.7
2023-02-22T16:31:12.664Z,9.7
2023-02-22T16:33:16.313Z,9.6
2023-02-22T16:35:20.156Z,9.6
2023-02-22T16:39:27.827Z,9.6
2023-02-22T16:41:31.616Z,9.6
2023-02-22T16:43:35.442Z,9.6
2023-02-22T16:49:50.189Z,9.5
2023-02-22T16:56:01.652Z,9.5
2023-02-22T16:58:05.462Z,9.4
2023-02-22T17:02:16.405Z,9.4
2023-02-22T17:04:20.233Z,9.4
2023-02-22T17:08:27.896Z,9.3
2023-02-22T17:21:57.545Z,9.3
2023-02-22T17:24:01.390Z,9.3
2023-02-22T17:28:12.292Z,9.2
2023-02-22T17:32:19.948Z,9.1
2023-02-22T17:34:23.756Z,9.1
2023-02-22T17:36:27.542Z,9.1
2023-02-22T17:38:31.379Z,9.1
2023-02-22T17:40:35.286Z,9.2
2023-02-22T17:42:42.314Z,9.1
2023-02-22T17:44:46.105Z,9.1
2023-02-22T17:46:50.023Z,9.1
2023-02-22T17:48:53.736Z,9.1
2023-02-22T17:50:57.546Z,9
2023-02-22T17:53:01.355Z,9
2023-02-22T17:55:05.179Z,9
2023-02-22T17:57:12.286Z,8.9
2023-02-22T17:59:16.098Z,8.9
2023-02-22T18:01:20.884Z,8.9
2023-02-22T18:05:27.536Z,8.8
2023-02-22T18:07:31.370Z,8.8
2023-02-22T18:09:35.292Z,8.8
2023-02-22T18:11:42.297Z,8.8
2023-02-22T18:13:46.105Z,8.8
2023-02-22T18:15:49.964Z,8.8
2023-02-22T18:16:53.469Z,8.8
2023-02-22T18:18:57.304Z,8.8
2023-02-22T18:21:01.133Z,8.8
2023-02-22T18:25:11.979Z,8.7
2023-02-22T18:29:19.654Z,8.7
2023-02-22T18:31:23.517Z,8.7
2023-02-22T18:33:27.272Z,8.7
2023-02-22T18:35:31.097Z,8.7
2023-02-22T18:37:34.944Z,8.7
2023-02-22T18:41:45.861Z,8.7
2023-02-22T18:43:49.664Z,8.7
2023-02-22T18:45:53.481Z,8.7
2023-02-22T18:47:57.319Z,8.7
2023-02-22T18:50:01.173Z,8.7
2023-02-22T18:52:04.935Z,8.6
2023-02-22T18:54:12.029Z,8.6
2023-02-22T18:56:15.987Z,8.6
2023-02-22T18:58:19.668Z,8.6
2023-02-22T19:00:23.500Z,8.6
2023-02-22T19:02:27.348Z,8.6
2023-02-22T19:04:31.139Z,8.5
2023-02-22T19:06:34.966Z,8.5
2023-02-22T19:08:42.074Z,8.5
2023-02-22T19:10:45.846Z,8.5
2023-02-22T19:12:49.687Z,8.5
2023-02-22T19:19:16.591Z,8.5
2023-02-22T19:21:23.679Z,8.5
2023-02-22T19:23:27.538Z,8.5
2023-02-22T19:25:31.316Z,8.5
2023-02-22T19:27:35.123Z,8.5
2023-02-22T19:29:38.956Z,8.5
2023-02-22T19:31:42.778Z,8.5
2023-02-22T19:33:46.578Z,8.5
2023-02-22T19:35:53.665Z,8.5
2023-02-22T19:37:57.507Z,8.5
2023-02-22T19:40:01.314Z,8.5
2023-02-22T19:42:05.151Z,8.5
2023-02-22T19:44:08.962Z,8.5
2023-02-22T19:46:12.796Z,8.5
2023-02-22T19:48:16.683Z,8.5
2023-02-22T19:50:23.689Z,8.5
2023-02-22T19:52:27.492Z,8.5
2023-02-22T19:54:32.961Z,8.5
2023-02-22T19:56:36.713Z,8.5
2023-02-22T19:58:40.523Z,8.5
2023-02-22T20:00:44.359Z,8.5
2023-02-22T20:02:48.179Z,8.5
2023-02-22T20:04:55.274Z,8.5
2023-02-22T20:06:59.089Z,8.5
2023-02-22T20:09:02.906Z,8.5
2023-02-22T20:10:06.465Z,8.5
2023-02-22T20:12:10.268Z,8.5
2023-02-22T20:14:14.104Z,8.5
2023-02-22T20:16:17.926Z,8.5
2023-02-22T20:18:24.989Z,8.5
2023-02-22T20:20:30.549Z,8.5
2023-02-22T20:22:32.609Z,8.5
2023-02-22T20:24:36.421Z,8.5
2023-02-22T20:26:40.267Z,8.5
2023-02-22T20:28:44.091Z,8.5
2023-02-22T20:30:47.921Z,8.5
2023-02-22T20:39:06.446Z,8.5
2023-02-22T20:45:17.922Z,8.5
2023-02-22T20:47:25.017Z,8.5
2023-02-22T20:49:28.825Z,8.5
2023-02-22T20:51:32.662Z,8.5
2023-02-22T20:53:36.484Z,8.5
2023-02-22T20:55:40.277Z,8.5
2023-02-22T20:57:44.094Z,8.5
2023-02-22T20:59:47.901Z,8.5
2023-02-22T21:01:55.024Z,8.5
2023-02-22T21:03:58.846Z,8.4
2023-02-22T21:06:02.653Z,8.4
2023-02-22T21:13:17.649Z,8.3
2023-02-22T21:17:28.544Z,8.3
2023-02-22T21:19:32.331Z,8.3
2023-02-22T21:21:36.155Z,8.3
2023-02-22T21:23:39.980Z,8.2
2023-02-22T21:27:47.628Z,8.2
2023-02-22T21:31:58.671Z,8.2
2023-02-22T21:34:02.380Z,8.2
2023-02-22T21:36:06.138Z,8.2
2023-02-22T21:38:09.973Z,8.2
2023-02-22T21:40:13.786Z,8.2
2023-02-22T21:42:17.612Z,8.2
2023-02-22T21:44:24.668Z,8.2
2023-02-22T21:46:28.621Z,8.2
2023-02-22T21:48:32.483Z,8.2
2023-02-22T21:50:36.112Z,8.2
2023-02-22T21:52:39.927Z,8.2
2023-02-22T21:54:43.694Z,8.1
2023-02-22T21:56:47.532Z,8.1
2023-02-22T21:58:54.621Z,8.1
2023-02-22T22:00:58.467Z,8.1
2023-02-22T22:06:09.587Z,8
2023-02-22T22:10:17.218Z,7.9
2023-02-22T22:14:28.137Z,7.8
2023-02-22T22:16:31.903Z,7.8
2023-02-22T22:18:35.732Z,7.8
2023-02-22T22:20:39.557Z,7.7
2023-02-22T22:22:43.340Z,7.7
2023-02-22T22:24:47.214Z,7.6
2023-02-22T22:26:54.208Z,7.7
2023-02-22T22:28:58.031Z,7.7
2023-02-22T22:31:02.023Z,7.6
2023-02-22T22:33:05.642Z,7.6
2023-02-22T22:37:13.268Z,7.6
2023-02-22T22:39:17.034Z,7.6
2023-02-22T22:41:24.126Z,7.7
2023-02-22T22:43:27.938Z,7.6
2023-02-22T22:45:31.716Z,7.7
2023-02-22T22:47:35.556Z,7.7
2023-02-22T22:49:39.356Z,7.7
2023-02-22T22:51:43.445Z,7.8
2023-02-22T22:53:46.953Z,7.7
2023-02-22T22:55:54.030Z,7.8
2023-02-22T22:57:57.806Z,7.8
2023-02-22T23:00:01.686Z,7.8
2023-02-22T23:04:30.258Z,7.7
2023-02-22T23:08:41.118Z,7.8
2023-02-22T23:10:44.926Z,7.8
2023-02-22T23:12:48.748Z,7.8
2023-02-22T23:14:52.553Z,7.8
2023-02-22T23:16:56.378Z,7.8
2023-02-22T23:19:00.184Z,7.8
2023-02-22T23:21:04.005Z,7.8
2023-02-22T23:23:11.080Z,7.8
2023-02-22T23:25:14.873Z,7.8
2023-02-22T23:27:18.697Z,7.8
2023-02-22T23:29:22.495Z,7.8
2023-02-22T23:31:26.356Z,7.9
2023-02-22T23:33:30.160Z,7.8
2023-02-22T23:35:33.923Z,7.8
2023-02-22T23:37:41.019Z,7.8
2023-02-22T23:39:44.818Z,7.8
2023-02-22T23:41:48.655Z,7.8
2023-02-22T23:43:52.448Z,7.8
2023-02-22T23:45:56.256Z,7.8
2023-02-22T23:48:00.083Z,7.8
2023-02-22T23:50:03.884Z,7.8
2023-02-22T23:52:10.967Z,7.8
2023-02-22T23:54:14.766Z,7.8
2023-02-22T23:56:18.581Z,7.8
